Webcam Flughafen St.Gallen-Altenrhein

Live-Bilder und Zeitraffer LSZR / ACH.

 

Live aus Altenrhein
LIVE
LSZR 212350Z AUTO VRB02KT 9999 NCD 11/11 Q1014
Zeitraffer heute
2019-09-22 00:14:54
LSZR 212150Z AUTO 11003KT CAVOK 12/12 Q1015